Time;durP1;ratioP1;P1;durP2;ratioP2;P2;SDS_P1;SDS_P2;PMS_P1;PMS_P2;Temp;Humidity;BMP_temperature;BMP_pressure;BME280_temperature;BME280_humidity;BME280_pressure;Samples;Min_cycle;Max_cycle;Signal;HPM_P1;HPM_P2
2023/07/23 00:08:40;;;;;;;8.38;5.00;;;;;;;13.90;61.70;100031.00;30595586;28;97036;-64
2023/07/23 00:23:40;;;;;;;8.13;5.38;;;;;;;14.08;62.85;100005.53;30594129;28;109554;-64
2023/07/23 00:38:41;;;;;;;10.07;7.07;;;;;;;14.35;62.90;100006.50;30593124;28;109071;-66
2023/07/23 00:53:41;;;;;;;8.20;5.32;;;;;;;14.24;63.14;99989.13;30593707;28;98872;-64
2023/07/23 01:08:44;;;;;;;9.13;5.40;;;;;;;13.98;63.54;99974.59;30612471;28;97334;-64
2023/07/23 01:23:44;;;;;;;10.17;5.13;;;;;;;13.68;64.43;99961.44;30611874;28;97110;-65
2023/07/23 01:38:45;;;;;;;8.15;5.53;;;;;;;13.34;65.56;99946.13;30610344;28;98599;-64
2023/07/23 01:53:46;;;;;;;8.27;5.50;;;;;;;13.37;66.77;99929.75;30609502;28;97334;-64
2023/07/23 02:08:46;;;;;;;9.02;5.00;;;;;;;13.40;66.48;99925.84;30605809;28;96702;-64
2023/07/23 02:23:46;;;;;;;7.03;4.55;;;;;;;13.37;66.74;99921.72;30605723;28;105689;-64
2023/07/23 02:38:47;;;;;;;7.80;4.65;;;;;;;13.45;67.35;99910.88;30604198;28;102768;-64
2023/07/23 02:53:49;;;;;;;7.05;4.78;;;;;;;13.24;67.29;99905.53;30602555;28;97065;-64
2023/07/23 03:08:49;;;;;;;7.93;4.53;;;;;;;13.08;68.08;99899.47;30600248;28;96779;-64
2023/07/23 03:23:49;;;;;;;7.82;4.75;;;;;;;13.13;68.65;99894.34;30598497;28;113341;-64
2023/07/23 03:38:50;;;;;;;7.75;5.28;;;;;;;13.45;68.51;99884.09;30597286;28;116298;-65
2023/07/23 03:53:50;;;;;;;5.53;4.20;;;;;;;13.50;68.63;99887.00;30596015;28;96941;-65
2023/07/23 04:08:51;;;;;;;8.23;4.60;;;;;;;13.68;68.78;99869.59;30594324;28;110973;-65
2023/07/23 04:23:55;;;;;;;8.18;4.97;;;;;;;14.10;68.43;99867.72;30594240;28;110683;-65
2023/07/23 04:38:55;;;;;;;14.30;7.73;;;;;;;14.33;68.02;99858.50;30608539;28;96760;-65
2023/07/23 04:53:56;;;;;;;14.95;6.07;;;;;;;14.81;67.72;99863.75;30609539;28;102784;-65
2023/07/23 05:08:56;;;;;;;7.25;4.78;;;;;;;15.42;66.85;99856.47;30610100;28;113887;-65
2023/07/23 05:23:56;;;;;;;5.57;3.88;;;;;;;16.44;65.97;99849.63;30609043;28;96843;-65
2023/07/23 05:38:57;;;;;;;6.78;3.50;;;;;;;17.00;64.80;99861.41;30608848;28;113168;-65
2023/07/23 05:53:57;;;;;;;5.72;3.60;;;;;;;17.82;64.17;99839.63;30606382;28;112223;-65
2023/07/23 06:08:57;;;;;;;7.03;2.90;;;;;;;18.93;62.58;99839.31;30604704;28;104262;-65
2023/07/23 06:23:57;;;;;;;4.13;2.80;;;;;;;19.94;59.43;99827.41;30602673;28;96735;-65
2023/07/23 06:38:58;;;;;;;3.83;2.45;;;;;;;21.06;56.58;99826.03;30603090;28;100904;-66
2023/07/23 06:53:58;;;;;;;5.07;2.40;;;;;;;22.60;50.11;99810.75;30597217;28;108458;-65
2023/07/23 07:08:58;;;;;;;3.97;1.97;;;;;;;23.31;46.17;99817.75;30599276;28;111847;-64
2023/07/23 07:23:58;;;;;;;;;;;;;;;23.62;43.08;99807.00;30598589;28;109209;-64
2023/07/23 07:38:59;;;;;;;4.07;2.30;;;;;;;24.03;41.74;99803.63;30600484;28;97394;-64
2023/07/23 07:53:59;;;;;;;3.42;1.90;;;;;;;23.79;41.78;99806.81;30603585;28;97127;-67
2023/07/23 08:09:01;;;;;;;4.28;1.98;;;;;;;24.03;40.74;99826.22;30594564;28;98150;-65
2023/07/23 08:24:02;;;;;;;3.93;1.93;;;;;;;24.16;38.80;99805.81;30529474;28;98714;-65
2023/07/23 08:39:04;;;;;;;4.13;2.00;;;;;;;25.09;37.31;99801.16;30613754;28;98197;-65
2023/07/23 08:54:06;;;;;;;5.67;2.10;;;;;;;26.22;35.27;99797.13;30597947;28;97528;-65
2023/07/23 09:09:08;;;;;;;5.10;2.07;;;;;;;27.62;32.56;99783.72;30606321;28;96930;-65
2023/07/23 09:24:12;;;;;;;4.13;1.63;;;;;;;29.24;29.62;99781.63;30592498;28;97017;-62
2023/07/23 09:39:12;;;;;;;3.70;2.23;;;;;;;28.51;29.91;99781.31;30610470;28;98127;-68
2023/07/23 09:54:14;;;;;;;4.10;2.33;;;;;;;28.84;29.16;99770.31;30551419;28;103197;-63
2023/07/23 10:09:16;;;;;;;3.70;1.80;;;;;;;28.80;28.86;99766.56;30649242;28;97580;-64
2023/07/23 10:24:16;;;;;;;3.43;2.13;;;;;;;30.19;27.37;99758.97;30632230;28;97276;-63
2023/07/23 10:39:18;;;;;;;6.47;2.17;;;;;;;29.78;27.49;99731.66;30629902;28;97952;-66
2023/07/23 10:54:19;;;;;;;4.57;1.90;;;;;;;30.13;27.46;99726.47;30609464;28;96813;-65
2023/07/23 11:09:33;;;;;;;3.80;1.87;;;;;;;30.14;27.46;99700.59;30647906;28;97846;-65
2023/07/23 11:24:34;;;;;;;5.30;2.00;;;;;;;30.95;27.01;99674.81;30598757;28;97417;-66
2023/07/23 11:39:34;;;;;;;4.05;2.20;;;;;;;31.04;26.67;99666.59;30588593;28;97079;-66
2023/07/23 11:54:34;;;;;;;3.83;1.83;;;;;;;30.48;26.68;99638.75;30594699;28;96711;-67
2023/07/23 12:09:35;;;;;;;4.60;1.67;;;;;;;31.34;25.77;99626.34;30594361;28;113897;-67
2023/07/23 12:24:35;;;;;;;2.50;1.73;;;;;;;31.02;24.84;99602.84;30592713;28;97213;-68
2023/07/23 12:39:35;;;;;;;4.18;1.38;;;;;;;30.39;24.06;99592.78;30589542;28;114648;-65
2023/07/23 12:54:36;;;;;;;3.17;1.40;;;;;;;30.43;23.29;99603.13;30597763;28;97415;-68
2023/07/23 13:09:36;;;;;;;3.20;1.55;;;;;;;31.04;22.23;99578.59;30611956;28;97168;-68
2023/07/23 13:24:36;;;;;;;4.32;1.85;;;;;;;31.54;23.09;99564.31;30609220;28;97122;-64
2023/07/23 13:39:37;;;;;;;5.00;1.95;;;;;;;31.06;24.70;99559.81;30607333;28;97272;-64
2023/07/23 13:54:38;;;;;;;4.88;1.98;;;;;;;30.87;24.57;99547.16;30617420;28;98333;-65
2023/07/23 14:09:39;;;;;;;4.57;2.13;;;;;;;30.92;24.81;99515.13;30600549;28;96743;-65
2023/07/23 14:24:39;;;;;;;3.47;1.87;;;;;;;30.37;25.67;99501.63;30596399;28;97002;-69
2023/07/23 14:39:40;;;;;;;2.95;1.77;;;;;;;30.40;25.04;99475.47;30600131;28;97381;-66
2023/07/23 14:54:41;;;;;;;3.60;2.07;;;;;;;30.47;24.42;99464.84;30601997;28;96816;-68
2023/07/23 15:09:41;;;;;;;3.88;1.73;;;;;;;30.05;24.46;99451.47;30600165;28;103714;-65
2023/07/23 15:24:42;;;;;;;4.00;2.03;;;;;;;29.48;25.04;99443.13;30597271;28;97254;-68
2023/07/23 15:39:42;;;;;;;3.30;1.60;;;;;;;28.95;25.13;99437.31;30595409;28;97449;-66
2023/07/23 15:54:42;;;;;;;3.88;1.75;;;;;;;28.86;25.80;99422.75;30594159;28;103347;-68
2023/07/23 16:09:42;;;;;;;4.25;2.28;;;;;;;28.78;26.38;99418.00;30594306;28;96732;-69
2023/07/23 16:24:43;;;;;;;3.97;1.83;;;;;;;28.86;26.77;99407.09;30593005;28;113598;-64
2023/07/23 16:39:45;;;;;;;3.38;1.50;;;;;;;28.87;26.96;99394.22;30612126;28;97490;-65
2023/07/23 16:54:47;;;;;;;5.77;1.80;;;;;;;28.82;27.59;99386.91;30611702;28;97223;-66
2023/07/23 17:09:48;;;;;;;6.10;2.13;;;;;;;28.76;28.30;99379.13;30611826;28;97288;-68
2023/07/23 17:24:48;;;;;;;8.48;2.10;;;;;;;28.39;28.77;99375.59;30609587;28;97551;-64
2023/07/23 17:39:49;;;;;;;3.40;1.67;;;;;;;27.84;30.14;99371.81;30607883;28;97276;-65
2023/07/23 17:54:49;;;;;;;3.88;1.75;;;;;;;27.32;31.14;99378.25;30606909;28;103418;-65
2023/07/23 18:09:49;;;;;;;3.78;2.00;;;;;;;27.05;31.63;99383.69;30605131;28;98862;-64
2023/07/23 18:24:50;;;;;;;4.28;2.53;;;;;;;26.93;30.81;99393.16;30597616;28;98027;-65
2023/07/23 18:39:51;;;;;;;4.22;1.65;;;;;;;26.86;29.92;99398.22;30593858;28;115403;-62
2023/07/23 18:54:51;;;;;;;3.77;2.13;;;;;;;26.81;29.87;99422.88;30592388;28;98822;-62
2023/07/23 19:09:52;;;;;;;4.30;1.90;;;;;;;26.61;30.33;99462.22;30592137;28;100970;-64
2023/07/23 19:24:52;;;;;;;6.43;1.67;;;;;;;26.50;30.97;99445.16;30642065;28;112898;-63
2023/07/23 19:39:52;;;;;;;3.60;2.30;;;;;;;26.37;31.18;99446.69;30646925;28;97468;-62
2023/07/23 19:54:53;;;;;;;5.72;1.77;;;;;;;26.28;31.69;99459.38;30643363;28;113120;-62
2023/07/23 20:09:53;;;;;;;3.63;2.05;;;;;;;26.13;32.19;99466.63;30662756;28;103601;-62
2023/07/23 20:24:53;;;;;;;4.72;2.28;;;;;;;26.07;32.21;99470.56;30669650;28;101389;-63
2023/07/23 20:39:54;;;;;;;5.63;2.58;;;;;;;25.73;32.68;99489.72;30580834;28;111991;-63
2023/07/23 20:54:54;;;;;;;8.10;2.80;;;;;;;25.49;32.79;99504.94;30591883;28;97509;-63
2023/07/23 21:09:55;;;;;;;6.97;3.05;;;;;;;25.22;33.17;99526.38;30589472;28;114354;-64
2023/07/23 21:24:56;;;;;;;6.83;2.63;;;;;;;25.10;32.83;99524.84;30610228;28;97277;-65
2023/07/23 21:39:57;;;;;;;8.93;3.25;;;;;;;24.99;33.29;99529.53;30609282;28;97416;-65
2023/07/23 21:54:57;;;;;;;4.37;2.27;;;;;;;24.91;33.68;99532.88;30608338;28;97677;-65
2023/07/23 22:09:58;;;;;;;4.97;2.00;;;;;;;24.74;34.06;99516.06;30606104;28;102552;-65
2023/07/23 22:24:58;;;;;;;4.32;2.40;;;;;;;24.50;34.30;99506.63;30604046;28;96766;-64
2023/07/23 22:39:58;;;;;;;8.25;2.33;;;;;;;23.57;35.98;99511.50;30603530;28;115538;-64
2023/07/23 22:54:59;;;;;;;5.30;2.42;;;;;;;22.90;37.25;99497.03;30603640;28;106230;-62
2023/07/23 23:09:59;;;;;;;;;;;;;;;22.32;38.36;99495.19;30601740;28;97424;-63
2023/07/23 23:24:59;;;;;;;3.30;2.00;;;;;;;21.76;39.56;99493.00;30601522;28;97020;-62
2023/07/23 23:40:00;;;;;;;4.47;2.20;;;;;;;21.21;40.70;99489.59;30598490;28;97268;-66
2023/07/23 23:55:01;;;;;;;6.97;2.73;;;;;;;20.69;41.97;99469.34;30597264;28;96620;-65
